Latest Coastal Weather Observations for Minlaton Airport

IDS60701

Issued at 11:55 am CST Saturday 19 April 2014 (issued every 10 minutes, with the page automatically refreshed every 10 minutes)

About coastal observations | Map of coastal stations | Coastal observations for SA | Marine services | Other Formats
Station Details ID: 022031 Name: MINLATON AERO Lat: -34.75 Lon: 137.53 Height: 32.0 m
Data from the previous 72 hours. | See also: Recent months at Minlaton Airport
Date/Time
CST
Temp

°C
Wind Pressure Rain
since 9am
mm
Weather Cloud Vis
km
Sea
Height
m
Swell
Dir
 
Speed
knots
Gust
knots
hPa Trend Height
m
Period
s
Dir
19/11:30am 17.2 N 4 7 1021.9 - 0.0 - - - - - - -
19/11:00am 16.8 W 3 5 1022.1 - 0.0 - - - - - - -
19/10:30am 16.1 WNW 5 8 1022.4 - 0.0 - - - - - - -
19/10:00am 16.1 NNW 6 8 1022.7 - 0.0 - - - - - - -
19/09:30am 15.7 N 8 10 1023.0 - 0.0 - - - - - - -
19/09:00am 15.1 N 9 11 1023.1 - 0.0 - - - - - - -
19/08:30am 13.7 N 8 9 1023.1 - 0.0 - - - - - - -
19/08:00am 12.3 N 8 9 1022.9 - 0.0 - - - - - - -
19/07:30am 11.5 NNE 8 9 1022.6 - 0.0 - - - - - - -
19/07:00am 9.3 NNE 9 10 1022.4 - 0.0 - - - - - - -
19/06:30am 8.2 E 7 10 1022.2 - 0.0 - - - - - - -
19/06:00am 8.1 SE 6 6 1022.1 - 0.0 - - - - - - -
19/05:30am 10.0 S 7 8 1022.1 - 0.0 - - - - - - -
19/05:00am 10.3 SSE 8 9 1022.1 - 0.0 - - - - - - -
19/04:30am 10.5 SSE 10 11 1021.9 - 0.0 - - - - - - -
19/04:00am 10.4 SSE 10 11 1022.0 - 0.0 - - - - - - -
19/03:30am 9.0 SSE 10 10 1022.0 - 0.0 - - - - - - -
19/03:00am 10.2 SSE 10 11 1022.0 - 0.0 - - - - - - -
19/02:30am 10.6 SSE 10 11 1022.1 - 0.0 - - - - - - -
19/02:00am 10.4 SSE 11 11 1022.4 - 0.0 - - - - - - -
19/01:30am 10.6 SE 10 11 1022.7 - 0.0 - - - - - - -
19/01:00am 11.4 SSE 11 12 1022.9 - 0.0 - - - - - - -
19/12:30am 10.3 SE 7 9 1023.0 - 0.0 - - - - - - -
19/12:00am 9.5 SSE 8 9 1023.1 - 0.0 - - - - - - -
 
Date/Time
CST
Temp

°C
Wind Pressure Rain
since 9am
mm
Weather Cloud Vis
km
Sea
Height
m
Swell
Dir
 
Speed
knots
Gust
knots
hPa Trend Height
m
Period
s
Dir
18/11:30pm 9.5 SE 9 9 1023.2 - 0.0 - - - - - - -
18/11:00pm 10.4 SE 10 11 1023.4 - 0.0 - - - - - - -
18/10:30pm 11.4 SE 11 11 1023.5 - 0.0 - - - - - - -
18/10:00pm 10.1 SE 10 11 1023.7 - 0.0 - - - - - - -
18/09:30pm 11.2 SE 10 11 1023.7 - 0.0 - - - - - - -
18/09:00pm 11.6 SE 11 11 1023.6 - 0.0 - - - - - - -
18/08:30pm 11.8 SE 10 11 1023.6 - 0.0 - - - - - - -
18/08:00pm 12.5 SE 11 12 1023.3 - 0.0 - - - - - - -
18/07:30pm 12.1 SE 10 11 1023.2 - 0.0 - - - - - - -
18/07:00pm 12.8 SE 10 11 1023.1 - 0.0 - - - - - - -
18/06:30pm 13.8 SE 11 12 1022.9 - 0.0 - - - - - - -
18/06:00pm 15.0 SE 12 15 1022.7 - 0.0 - - - - - - -
18/05:30pm 16.6 SE 15 17 1022.6 - 0.0 - - - - - - -
18/05:00pm 18.0 SSE 15 17 1022.3 - 0.0 - - - - - - -
18/04:30pm 18.4 S 10 13 1022.1 - 0.0 - - - - - - -
18/04:00pm 19.7 S 11 18 1021.9 - 0.0 - - - - - - -
18/03:30pm 19.7 SSW 13 19 1021.8 - 0.0 - - - - - - -
18/03:00pm 20.2 SW 11 15 1021.9 - 0.0 - - - - - - -
18/02:30pm 20.5 S 11 15 1021.9 - 0.0 - - - - - - -
18/02:00pm 20.9 SSW 11 15 1021.8 - 0.0 - - - - - - -
18/01:30pm 20.2 S 13 17 1021.8 - 0.0 - - - - - - -
18/01:00pm 20.1 S 13 19 1022.0 - 0.0 - - - - - - -
18/12:30pm 19.6 S 13 20 1022.2 - 0.0 - - - - - - -
18/12:00pm 20.1 S 15 25 1022.4 - 0.0 - - - - - - -
18/11:39am 20.0 SSW 15 25 1022.4 - 0.0 - - - - - - -
18/11:30am 20.2 SSW 13 19 1022.5 - 0.0 - - - - - - -
18/11:00am 20.1 SSW 14 20 1022.5 - 0.0 - - - - - - -
18/10:30am 18.9 S 14 20 1022.6 - 0.0 - - - - - - -
18/10:00am 19.1 S 14 19 1022.5 - 0.0 - - - - - - -
18/09:30am 18.6 SSW 16 20 1022.5 - 0.0 - - - - - - -
18/09:00am 18.1 SSW 15 19 1022.3 - 0.2 - - - - - - -
18/08:30am 17.3 SSW 13 18 1022.1 - 0.2 - - - - - - -
18/08:00am 16.6 SSW 10 12 1021.6 - 0.2 - - - - - - -
18/07:30am 16.2 SSW 14 17 1021.0 - 0.2 - - - - - - -
18/07:00am 16.5 SW 13 16 1020.5 - 0.2 - - - - - - -
18/06:30am 16.6 WSW 16 19 1020.1 - 0.2 - - - - - - -
18/06:00am 17.7 W 12 15 1019.8 - 0.0 - - - - - - -
18/05:30am 17.4 W 12 14 1019.7 - 0.0 - - - - - - -
18/05:00am 17.3 W 13 16 1019.7 - 0.0 - - - - - - -
18/04:30am 17.2 W 15 17 1019.7 - 0.0 - - - - - - -
18/04:00am 17.1 W 14 17 1019.6 - 0.0 - - - - - - -
18/03:30am 16.9 W 13 16 1019.5 - 0.0 - - - - - - -
18/03:00am 17.0 W 14 16 1019.6 - 0.0 - - - - - - -
18/02:30am 16.6 W 12 15 1019.6 - 0.0 - - - - - - -
18/02:00am 17.0 WSW 13 16 1019.6 - 0.0 - - - - - - -
18/01:30am 16.9 W 13 17 1019.7 - 0.0 - - - - - - -
18/01:00am 17.5 WSW 14 17 1019.5 - 0.0 - - - - - - -
18/12:30am 17.5 WSW 14 17 1019.4 - 0.0 - - - - - - -
18/12:00am 17.4 W 14 17 1019.4 - 0.0 - - - - - - -
 
Date/Time
CST
Temp

°C
Wind Pressure Rain
since 9am
mm
Weather Cloud Vis
km
Sea
Height
m
Swell
Dir
 
Speed
knots
Gust
knots
hPa Trend Height
m
Period
s
Dir
17/11:30pm 17.6 W 13 17 1019.6 - 0.0 - - - - - - -
17/11:00pm 17.8 W 10 12 1019.8 - 0.0 - - - - - - -
17/10:30pm 18.4 WNW 13 16 1019.9 - 0.0 - - - - - - -
17/10:00pm 17.7 WNW 11 13 1020.1 - 0.0 - - - - - - -
17/09:30pm 15.7 NNW 6 10 1020.2 - 0.0 - - - - - - -
17/09:00pm 15.8 NNW 5 6 1020.2 - 0.0 - - - - - - -
17/08:30pm 15.6 NNW 6 8 1020.0 - 0.0 - - - - - - -
17/08:00pm 15.1 NW 7 7 1019.8 - 0.0 - - - - - - -
17/07:30pm 16.2 NNW 6 7 1019.4 - 0.0 - - - - - - -
17/07:00pm 16.6 N 4 4 1019.1 - 0.0 - - - - - - -
17/06:30pm 17.5 NNW 4 5 1018.8 - 0.0 - - - - - - -
17/06:00pm 18.7 WNW 4 5 1018.8 - 0.0 - - - - - - -
17/05:30pm 20.4 WNW 4 5 1018.8 - 0.0 - - - - - - -
17/05:00pm 20.9 WNW 4 5 1018.7 - 0.0 - - - - - - -
17/04:30pm 21.4 WNW 5 6 1018.8 - 0.0 - - - - - - -
17/04:00pm 21.8 NW 5 7 1019.0 - 0.0 - - - - - - -
17/03:30pm 22.0 NW 8 10 1019.3 - 0.0 - - - - - - -
17/03:00pm 21.7 WNW 10 13 1019.5 - 0.0 - - - - - - -
17/02:30pm 22.1 WNW 11 14 1019.6 - 0.0 - - - - - - -
17/02:00pm 21.9 WNW 11 14 1019.8 - 0.0 - - - - - - -
17/01:30pm 21.3 WNW 12 14 1020.1 - 0.0 - - - - - - -
17/01:00pm 20.8 WNW 10 12 1020.4 - 0.0 - - - - - - -
17/12:30pm 21.2 W 10 13 1020.9 - 0.0 - - - - - - -
17/12:00pm 21.0 W 10 13 1021.4 - 0.0 - - - - - - -
17/11:30am 21.2 W 9 13 1021.5 - 0.0 - - - - - - -
17/11:00am 20.5 W 7 9 1021.7 - 0.0 - - - - - - -
17/10:30am 20.1 W 7 11 1021.5 - 0.0 - - - - - - -
17/10:00am 18.9 WNW 8 11 1021.6 - 0.0 - - - - - - -
17/09:30am 19.1 N 6 9 1021.5 - 0.0 - - - - - - -
17/09:00am 18.6 N 7 9 1021.3 - 0.0 - - - - - - -
17/08:30am 16.9 NNE 8 9 1021.2 - 0.0 - - - - - - -
17/08:00am 14.7 NE 8 9 1020.9 - 0.0 - - - - - - -
17/07:30am 12.3 NE 9 9 1020.7 - 0.0 - - - - - - -
17/07:00am 11.1 NE 7 8 1020.5 - 0.0 - - - - - - -
17/06:30am 10.8 NE 8 9 1020.3 - 0.0 - - - - - - -
17/06:00am 11.0 NE 8 8 1020.2 - 0.0 - - - - - - -
17/05:30am 11.3 NE 7 8 1020.1 - 0.0 - - - - - - -
17/05:00am 12.1 NNE 7 7 1020.2 - 0.0 - - - - - - -
17/04:30am 11.3 NE 8 8 1020.0 - 0.0 - - - - - - -
17/04:00am 11.2 NNE 6 7 1020.0 - 0.0 - - - - - - -
17/03:30am 11.3 NNE 6 7 1019.9 - 0.0 - - - - - - -
17/03:00am 11.4 NE 5 6 1019.7 - 0.0 - - - - - - -
17/02:30am 10.9 NNE 5 5 1019.9 - 0.0 - - - - - - -
17/02:00am 10.9 ENE 3 5 1020.3 - 0.0 - - - - - - -
17/01:30am 11.3 ENE 5 6 1020.4 - 0.0 - - - - - - -
17/01:00am 11.8 NE 4 4 1020.4 - 0.0 - - - - - - -
17/12:30am 11.3 NE 1 4 1020.4 - 0.0 - - - - - - -
17/12:00am 11.6 ENE 5 6 1020.5 - 0.0 - - - - - - -
 
Date/Time
CST
Temp

°C
Wind Pressure Rain
since 9am
mm
Weather Cloud Vis
km
Sea
Height
m
Swell
Dir
 
Speed
knots
Gust
knots
hPa Trend Height
m
Period
s
Dir
16/11:30pm 11.9 NE 2 5 1020.6 - 0.0 - - - - - - -
16/11:00pm 12.5 NE 3 5 1020.7 - 0.0 - - - - - - -
16/10:30pm 12.5 ENE 2 4 1020.8 - 0.0 - - - - - - -
16/10:00pm 13.0 ENE 6 7 1020.9 - 0.0 - - - - - - -
16/09:30pm 12.0 SSE 2 6 1020.7 - 0.0 - - - - - - -
16/09:00pm 12.4 S 4 5 1020.6 - 0.0 - - - - - - -
16/08:30pm 13.8 ESE 5 6 1020.4 - 0.0 - - - - - - -
16/08:00pm 14.5 ESE 7 7 1020.2 - 0.0 - - - - - - -
16/07:30pm 15.3 SSE 9 9 1020.2 - 0.0 - - - - - - -
16/07:00pm 16.2 S 6 7 1019.8 - 0.0 - - - - - - -
16/06:30pm 17.5 WSW 9 10 1019.5 - 0.0 - - - - - - -
16/06:00pm 17.5 W 7 9 1019.2 - 0.0 - - - - - - -
16/05:30pm 19.9 W 6 7 1019.0 - 0.0 - - - - - - -
16/05:00pm 21.2 W 7 10 1018.7 - 0.0 - - - - - - -
16/04:30pm 21.6 W 8 10 1018.7 - 0.0 - - - - - - -
16/04:00pm 21.5 W 10 12 1019.0 - 0.0 - - - - - - -
16/03:30pm 21.7 W 8 11 1019.0 - 0.0 - - - - - - -
16/03:00pm 21.7 W 9 11 1019.1 - 0.0 - - - - - - -
16/02:30pm 21.1 WNW 10 13 1019.0 - 0.0 - - - - - - -
16/02:00pm 21.4 W 13 16 1019.5 - 0.0 - - - - - - -
16/01:30pm 21.2 W 14 17 1019.4 - 0.0 - - - - - - -
16/01:00pm 21.5 WNW 12 15 1019.4 - 0.0 - - - - - - -
16/12:30pm 21.0 NW 11 14 1019.4 - 0.0 - - - - - - -
16/12:00pm 21.2 NW 12 16 1020.0 - 0.0 - - - - - - -

Other Formats:

Comma delimited format used in spreadsheet applications
http://www.bom.gov.au/fwo/IDS60701/IDS60701.95659.axf

JavaScript Object Notation format (JSON) in row-major order
http://www.bom.gov.au/fwo/IDS60701/IDS60701.95659.json